sensor_id;sensor_type;location;lat;lon;timestamp;P1;durP1;ratioP1;P2;durP2;ratioP2
22963;SDS011;11648;49.306;6.934;2024-01-27T00:00:58;9.37;;;3.87;;
22963;SDS011;11648;49.306;6.934;2024-01-27T00:03:25;10.73;;;3.90;;
22963;SDS011;11648;49.306;6.934;2024-01-27T00:05:52;8.50;;;4.00;;
22963;SDS011;11648;49.306;6.934;2024-01-27T00:08:20;10.57;;;3.90;;
22963;SDS011;11648;49.306;6.934;2024-01-27T00:10:47;9.47;;;3.83;;
22963;SDS011;11648;49.306;6.934;2024-01-27T00:13:14;9.80;;;4.07;;
22963;SDS011;11648;49.306;6.934;2024-01-27T00:15:41;9.20;;;4.90;;
22963;SDS011;11648;49.306;6.934;2024-01-27T00:18:08;7.23;;;3.83;;
22963;SDS011;11648;49.306;6.934;2024-01-27T00:20:35;9.70;;;3.70;;
22963;SDS011;11648;49.306;6.934;2024-01-27T00:23:02;8.70;;;4.00;;
22963;SDS011;11648;49.306;6.934;2024-01-27T00:25:32;9.27;;;3.57;;
22963;SDS011;11648;49.306;6.934;2024-01-27T00:27:59;7.73;;;3.40;;
22963;SDS011;11648;49.306;6.934;2024-01-27T00:30:26;9.43;;;3.40;;
22963;SDS011;11648;49.306;6.934;2024-01-27T00:32:53;9.33;;;3.10;;
22963;SDS011;11648;49.306;6.934;2024-01-27T00:35:20;7.70;;;3.27;;
22963;SDS011;11648;49.306;6.934;2024-01-27T00:37:47;8.03;;;3.53;;
22963;SDS011;11648;49.306;6.934;2024-01-27T00:40:15;9.57;;;3.33;;
22963;SDS011;11648;49.306;6.934;2024-01-27T00:42:42;10.30;;;2.90;;
22963;SDS011;11648;49.306;6.934;2024-01-27T00:45:09;8.27;;;2.87;;
22963;SDS011;11648;49.306;6.934;2024-01-27T00:47:36;9.17;;;2.90;;
22963;SDS011;11648;49.306;6.934;2024-01-27T00:50:03;9.43;;;2.70;;
22963;SDS011;11648;49.306;6.934;2024-01-27T00:52:30;12.90;;;3.10;;
22963;SDS011;11648;49.306;6.934;2024-01-27T00:54:57;10.23;;;3.37;;
22963;SDS011;11648;49.306;6.934;2024-01-27T00:57:24;6.90;;;3.67;;
22963;SDS011;11648;49.306;6.934;2024-01-27T00:59:51;9.83;;;3.00;;
22963;SDS011;11648;49.306;6.934;2024-01-27T01:02:18;9.43;;;2.97;;
22963;SDS011;11648;49.306;6.934;2024-01-27T01:04:45;9.23;;;2.33;;
22963;SDS011;11648;49.306;6.934;2024-01-27T01:07:12;6.63;;;2.43;;
22963;SDS011;11648;49.306;6.934;2024-01-27T01:09:39;7.70;;;2.40;;
22963;SDS011;11648;49.306;6.934;2024-01-27T01:12:06;6.10;;;2.60;;
22963;SDS011;11648;49.306;6.934;2024-01-27T01:14:33;6.93;;;2.57;;
22963;SDS011;11648;49.306;6.934;2024-01-27T01:17:00;4.73;;;2.17;;
22963;SDS011;11648;49.306;6.934;2024-01-27T01:19:27;6.57;;;1.80;;
22963;SDS011;11648;49.306;6.934;2024-01-27T01:21:54;9.60;;;2.37;;
22963;SDS011;11648;49.306;6.934;2024-01-27T01:24:21;10.23;;;2.50;;
22963;SDS011;11648;49.306;6.934;2024-01-27T01:26:48;7.03;;;2.20;;
22963;SDS011;11648;49.306;6.934;2024-01-27T01:29:15;8.03;;;2.43;;
22963;SDS011;11648;49.306;6.934;2024-01-27T01:31:43;10.43;;;2.77;;
22963;SDS011;11648;49.306;6.934;2024-01-27T01:34:10;8.73;;;2.80;;
22963;SDS011;11648;49.306;6.934;2024-01-27T01:36:37;7.07;;;2.80;;
22963;SDS011;11648;49.306;6.934;2024-01-27T01:39:04;9.43;;;3.07;;
22963;SDS011;11648;49.306;6.934;2024-01-27T01:41:31;8.07;;;2.97;;
22963;SDS011;11648;49.306;6.934;2024-01-27T01:43:58;9.03;;;3.23;;
22963;SDS011;11648;49.306;6.934;2024-01-27T01:46:25;8.03;;;3.30;;
22963;SDS011;11648;49.306;6.934;2024-01-27T01:48:53;7.40;;;2.73;;
22963;SDS011;11648;49.306;6.934;2024-01-27T01:51:20;7.90;;;3.10;;
22963;SDS011;11648;49.306;6.934;2024-01-27T01:53:48;9.17;;;3.10;;
22963;SDS011;11648;49.306;6.934;2024-01-27T01:56:16;13.70;;;3.57;;
22963;SDS011;11648;49.306;6.934;2024-01-27T01:58:43;10.90;;;3.40;;
22963;SDS011;11648;49.306;6.934;2024-01-27T02:01:11;7.80;;;3.17;;
22963;SDS011;11648;49.306;6.934;2024-01-27T02:03:38;7.90;;;2.70;;
22963;SDS011;11648;49.306;6.934;2024-01-27T02:06:05;8.63;;;3.10;;
22963;SDS011;11648;49.306;6.934;2024-01-27T02:08:32;6.03;;;2.80;;
22963;SDS011;11648;49.306;6.934;2024-01-27T02:10:59;10.23;;;2.93;;
22963;SDS011;11648;49.306;6.934;2024-01-27T02:13:29;7.60;;;2.90;;
22963;SDS011;11648;49.306;6.934;2024-01-27T02:15:55;10.17;;;3.37;;
22963;SDS011;11648;49.306;6.934;2024-01-27T02:18:22;9.00;;;3.30;;
22963;SDS011;11648;49.306;6.934;2024-01-27T02:20:50;10.30;;;3.30;;
22963;SDS011;11648;49.306;6.934;2024-01-27T02:23:17;10.30;;;4.33;;
22963;SDS011;11648;49.306;6.934;2024-01-27T02:25:43;10.87;;;3.43;;
22963;SDS011;11648;49.306;6.934;2024-01-27T02:28:10;8.40;;;3.23;;
22963;SDS011;11648;49.306;6.934;2024-01-27T02:30:39;8.17;;;3.13;;
22963;SDS011;11648;49.306;6.934;2024-01-27T02:33:06;8.13;;;3.50;;
22963;SDS011;11648;49.306;6.934;2024-01-27T02:35:33;8.80;;;2.90;;
22963;SDS011;11648;49.306;6.934;2024-01-27T02:38:00;8.57;;;2.60;;
22963;SDS011;11648;49.306;6.934;2024-01-27T02:40:27;8.07;;;2.97;;
22963;SDS011;11648;49.306;6.934;2024-01-27T02:42:54;10.60;;;2.63;;
22963;SDS011;11648;49.306;6.934;2024-01-27T02:45:21;8.53;;;3.07;;
22963;SDS011;11648;49.306;6.934;2024-01-27T02:47:48;13.67;;;2.47;;
22963;SDS011;11648;49.306;6.934;2024-01-27T02:50:15;8.53;;;2.83;;
22963;SDS011;11648;49.306;6.934;2024-01-27T02:52:42;9.07;;;2.77;;
22963;SDS011;11648;49.306;6.934;2024-01-27T02:55:09;9.57;;;2.70;;
22963;SDS011;11648;49.306;6.934;2024-01-27T02:57:36;11.77;;;3.17;;
22963;SDS011;11648;49.306;6.934;2024-01-27T03:00:03;10.80;;;3.03;;
22963;SDS011;11648;49.306;6.934;2024-01-27T03:02:31;7.43;;;2.80;;
22963;SDS011;11648;49.306;6.934;2024-01-27T03:04:58;7.13;;;2.83;;
22963;SDS011;11648;49.306;6.934;2024-01-27T03:07:26;6.47;;;2.90;;
22963;SDS011;11648;49.306;6.934;2024-01-27T03:09:53;8.30;;;2.80;;
22963;SDS011;11648;49.306;6.934;2024-01-27T03:12:20;7.63;;;2.60;;
22963;SDS011;11648;49.306;6.934;2024-01-27T03:14:49;8.53;;;2.80;;
22963;SDS011;11648;49.306;6.934;2024-01-27T03:17:17;10.00;;;2.80;;
22963;SDS011;11648;49.306;6.934;2024-01-27T03:19:44;7.17;;;2.47;;
22963;SDS011;11648;49.306;6.934;2024-01-27T03:22:14;9.50;;;3.07;;
22963;SDS011;11648;49.306;6.934;2024-01-27T03:24:41;9.17;;;3.23;;
22963;SDS011;11648;49.306;6.934;2024-01-27T03:27:08;10.13;;;2.93;;
22963;SDS011;11648;49.306;6.934;2024-01-27T03:29:35;11.53;;;3.30;;
22963;SDS011;11648;49.306;6.934;2024-01-27T03:32:02;9.60;;;3.13;;
22963;SDS011;11648;49.306;6.934;2024-01-27T03:34:29;10.97;;;3.40;;
22963;SDS011;11648;49.306;6.934;2024-01-27T03:36:56;8.47;;;2.97;;
22963;SDS011;11648;49.306;6.934;2024-01-27T03:39:23;7.53;;;3.00;;
22963;SDS011;11648;49.306;6.934;2024-01-27T03:41:50;5.57;;;2.50;;
22963;SDS011;11648;49.306;6.934;2024-01-27T03:44:17;9.20;;;3.20;;
22963;SDS011;11648;49.306;6.934;2024-01-27T03:46:44;8.43;;;2.90;;
22963;SDS011;11648;49.306;6.934;2024-01-27T03:49:11;9.27;;;3.00;;
22963;SDS011;11648;49.306;6.934;2024-01-27T03:51:38;6.77;;;2.70;;
22963;SDS011;11648;49.306;6.934;2024-01-27T03:54:05;7.93;;;2.93;;
22963;SDS011;11648;49.306;6.934;2024-01-27T03:56:33;7.13;;;2.80;;
22963;SDS011;11648;49.306;6.934;2024-01-27T03:58:59;8.80;;;2.93;;
22963;SDS011;11648;49.306;6.934;2024-01-27T04:01:26;9.80;;;3.70;;
22963;SDS011;11648;49.306;6.934;2024-01-27T04:03:53;7.37;;;3.00;;
22963;SDS011;11648;49.306;6.934;2024-01-27T04:06:20;8.67;;;3.00;;
22963;SDS011;11648;49.306;6.934;2024-01-27T04:08:47;7.67;;;2.97;;
22963;SDS011;11648;49.306;6.934;2024-01-27T04:11:20;8.17;;;2.70;;
22963;SDS011;11648;49.306;6.934;2024-01-27T04:13:48;8.57;;;2.60;;
22963;SDS011;11648;49.306;6.934;2024-01-27T04:16:19;7.57;;;2.20;;
22963;SDS011;11648;49.306;6.934;2024-01-27T04:18:46;7.03;;;2.77;;
22963;SDS011;11648;49.306;6.934;2024-01-27T04:21:13;8.83;;;2.80;;
22963;SDS011;11648;49.306;6.934;2024-01-27T04:23:41;7.83;;;2.73;;
22963;SDS011;11648;49.306;6.934;2024-01-27T04:26:08;6.20;;;2.60;;
22963;SDS011;11648;49.306;6.934;2024-01-27T04:28:36;7.80;;;2.80;;
22963;SDS011;11648;49.306;6.934;2024-01-27T04:31:03;7.53;;;2.83;;
22963;SDS011;11648;49.306;6.934;2024-01-27T04:33:30;6.60;;;2.80;;
22963;SDS011;11648;49.306;6.934;2024-01-27T04:35:58;7.53;;;3.30;;
22963;SDS011;11648;49.306;6.934;2024-01-27T04:38:25;8.73;;;2.90;;
22963;SDS011;11648;49.306;6.934;2024-01-27T04:40:51;7.13;;;3.00;;
22963;SDS011;11648;49.306;6.934;2024-01-27T04:43:19;8.30;;;3.60;;
22963;SDS011;11648;49.306;6.934;2024-01-27T04:45:48;10.80;;;3.37;;
22963;SDS011;11648;49.306;6.934;2024-01-27T04:48:16;8.23;;;3.47;;
22963;SDS011;11648;49.306;6.934;2024-01-27T04:50:43;6.97;;;3.00;;
22963;SDS011;11648;49.306;6.934;2024-01-27T04:53:10;7.70;;;3.00;;
22963;SDS011;11648;49.306;6.934;2024-01-27T04:55:37;6.87;;;2.87;;
22963;SDS011;11648;49.306;6.934;2024-01-27T04:58:07;6.00;;;2.70;;
22963;SDS011;11648;49.306;6.934;2024-01-27T05:00:34;5.97;;;2.77;;
22963;SDS011;11648;49.306;6.934;2024-01-27T05:03:01;8.07;;;2.60;;
22963;SDS011;11648;49.306;6.934;2024-01-27T05:05:31;8.03;;;2.90;;
22963;SDS011;11648;49.306;6.934;2024-01-27T05:08:02;7.07;;;3.03;;
22963;SDS011;11648;49.306;6.934;2024-01-27T05:10:30;8.23;;;2.70;;
22963;SDS011;11648;49.306;6.934;2024-01-27T05:12:56;7.33;;;2.73;;
22963;SDS011;11648;49.306;6.934;2024-01-27T05:15:23;7.93;;;2.97;;
22963;SDS011;11648;49.306;6.934;2024-01-27T05:17:50;7.20;;;3.17;;
22963;SDS011;11648;49.306;6.934;2024-01-27T05:20:18;6.60;;;2.90;;
22963;SDS011;11648;49.306;6.934;2024-01-27T05:22:45;7.23;;;2.80;;
22963;SDS011;11648;49.306;6.934;2024-01-27T05:25:12;11.80;;;3.20;;
22963;SDS011;11648;49.306;6.934;2024-01-27T05:27:40;7.47;;;2.30;;
22963;SDS011;11648;49.306;6.934;2024-01-27T05:30:07;7.20;;;2.70;;
22963;SDS011;11648;49.306;6.934;2024-01-27T05:32:35;7.63;;;3.17;;
22963;SDS011;11648;49.306;6.934;2024-01-27T05:35:02;7.50;;;2.83;;
22963;SDS011;11648;49.306;6.934;2024-01-27T05:37:29;8.13;;;3.00;;
22963;SDS011;11648;49.306;6.934;2024-01-27T05:39:57;6.50;;;2.77;;
22963;SDS011;11648;49.306;6.934;2024-01-27T05:42:24;8.23;;;2.80;;
22963;SDS011;11648;49.306;6.934;2024-01-27T05:44:51;4.80;;;2.37;;
22963;SDS011;11648;49.306;6.934;2024-01-27T05:47:18;7.47;;;2.67;;
22963;SDS011;11648;49.306;6.934;2024-01-27T05:49:45;7.90;;;2.90;;
22963;SDS011;11648;49.306;6.934;2024-01-27T05:52:12;8.43;;;2.60;;
22963;SDS011;11648;49.306;6.934;2024-01-27T05:54:51;6.90;;;2.67;;
22963;SDS011;11648;49.306;6.934;2024-01-27T05:57:18;8.37;;;2.50;;
22963;SDS011;11648;49.306;6.934;2024-01-27T05:59:46;7.37;;;2.50;;
22963;SDS011;11648;49.306;6.934;2024-01-27T06:02:13;6.10;;;2.80;;
22963;SDS011;11648;49.306;6.934;2024-01-27T06:04:40;9.27;;;3.30;;
22963;SDS011;11648;49.306;6.934;2024-01-27T06:07:07;10.00;;;3.37;;
22963;SDS011;11648;49.306;6.934;2024-01-27T06:09:36;8.20;;;2.57;;
22963;SDS011;11648;49.306;6.934;2024-01-27T06:12:04;8.20;;;3.23;;
22963;SDS011;11648;49.306;6.934;2024-01-27T06:14:31;9.40;;;3.07;;
22963;SDS011;11648;49.306;6.934;2024-01-27T06:16:58;6.17;;;2.40;;
22963;SDS011;11648;49.306;6.934;2024-01-27T06:19:26;6.30;;;2.40;;
22963;SDS011;11648;49.306;6.934;2024-01-27T06:21:54;7.97;;;3.17;;
22963;SDS011;11648;49.306;6.934;2024-01-27T06:24:20;9.77;;;3.10;;
22963;SDS011;11648;49.306;6.934;2024-01-27T06:26:47;8.40;;;3.73;;
22963;SDS011;11648;49.306;6.934;2024-01-27T06:29:15;9.23;;;3.60;;
22963;SDS011;11648;49.306;6.934;2024-01-27T06:31:42;9.63;;;3.83;;
22963;SDS011;11648;49.306;6.934;2024-01-27T06:34:09;12.63;;;4.77;;
22963;SDS011;11648;49.306;6.934;2024-01-27T06:36:36;8.83;;;3.97;;
22963;SDS011;11648;49.306;6.934;2024-01-27T06:39:03;8.17;;;3.63;;
22963;SDS011;11648;49.306;6.934;2024-01-27T06:41:30;15.27;;;8.37;;
22963;SDS011;11648;49.306;6.934;2024-01-27T06:43:57;12.90;;;4.30;;
22963;SDS011;11648;49.306;6.934;2024-01-27T06:46:24;9.60;;;4.07;;
22963;SDS011;11648;49.306;6.934;2024-01-27T06:48:51;8.87;;;3.90;;
22963;SDS011;11648;49.306;6.934;2024-01-27T06:51:18;9.07;;;3.93;;
22963;SDS011;11648;49.306;6.934;2024-01-27T06:53:46;8.67;;;4.30;;
22963;SDS011;11648;49.306;6.934;2024-01-27T06:56:15;9.30;;;3.77;;
22963;SDS011;11648;49.306;6.934;2024-01-27T06:58:42;9.07;;;4.03;;
22963;SDS011;11648;49.306;6.934;2024-01-27T07:01:09;9.20;;;4.10;;
22963;SDS011;11648;49.306;6.934;2024-01-27T07:03:36;9.67;;;4.10;;
22963;SDS011;11648;49.306;6.934;2024-01-27T07:06:03;9.53;;;4.40;;
22963;SDS011;11648;49.306;6.934;2024-01-27T07:08:30;9.60;;;4.47;;
22963;SDS011;11648;49.306;6.934;2024-01-27T07:11:03;10.37;;;4.53;;
22963;SDS011;11648;49.306;6.934;2024-01-27T07:13:31;7.63;;;4.30;;
22963;SDS011;11648;49.306;6.934;2024-01-27T07:15:58;9.53;;;4.10;;
22963;SDS011;11648;49.306;6.934;2024-01-27T07:18:25;8.93;;;4.37;;
22963;SDS011;11648;49.306;6.934;2024-01-27T07:20:53;7.93;;;3.63;;
22963;SDS011;11648;49.306;6.934;2024-01-27T07:23:21;7.37;;;3.77;;
22963;SDS011;11648;49.306;6.934;2024-01-27T07:25:48;8.43;;;3.90;;
22963;SDS011;11648;49.306;6.934;2024-01-27T07:28:15;9.73;;;3.90;;
22963;SDS011;11648;49.306;6.934;2024-01-27T07:30:45;10.43;;;4.90;;
22963;SDS011;11648;49.306;6.934;2024-01-27T07:33:12;10.90;;;4.40;;
22963;SDS011;11648;49.306;6.934;2024-01-27T07:35:40;8.83;;;3.80;;
22963;SDS011;11648;49.306;6.934;2024-01-27T07:38:07;10.07;;;4.00;;
22963;SDS011;11648;49.306;6.934;2024-01-27T07:40:35;9.17;;;3.43;;
22963;SDS011;11648;49.306;6.934;2024-01-27T07:43:02;7.80;;;3.57;;
22963;SDS011;11648;49.306;6.934;2024-01-27T07:45:29;9.30;;;4.13;;
22963;SDS011;11648;49.306;6.934;2024-01-27T07:47:56;11.73;;;4.27;;
22963;SDS011;11648;49.306;6.934;2024-01-27T07:50:27;11.00;;;4.13;;
22963;SDS011;11648;49.306;6.934;2024-01-27T07:52:54;10.13;;;4.17;;
22963;SDS011;11648;49.306;6.934;2024-01-27T07:55:21;12.67;;;4.80;;
22963;SDS011;11648;49.306;6.934;2024-01-27T07:57:48;11.90;;;4.90;;
22963;SDS011;11648;49.306;6.934;2024-01-27T08:00:15;12.03;;;5.73;;
22963;SDS011;11648;49.306;6.934;2024-01-27T08:02:43;16.07;;;5.83;;
22963;SDS011;11648;49.306;6.934;2024-01-27T08:05:10;13.53;;;5.43;;
22963;SDS011;11648;49.306;6.934;2024-01-27T08:07:37;12.37;;;5.60;;
22963;SDS011;11648;49.306;6.934;2024-01-27T08:10:04;12.50;;;4.90;;
22963;SDS011;11648;49.306;6.934;2024-01-27T08:12:31;11.13;;;5.00;;
22963;SDS011;11648;49.306;6.934;2024-01-27T08:14:58;9.67;;;4.70;;
22963;SDS011;11648;49.306;6.934;2024-01-27T08:17:25;10.00;;;5.07;;
22963;SDS011;11648;49.306;6.934;2024-01-27T08:19:52;10.20;;;4.20;;
22963;SDS011;11648;49.306;6.934;2024-01-27T08:22:20;10.13;;;4.00;;
22963;SDS011;11648;49.306;6.934;2024-01-27T08:24:47;11.20;;;4.50;;
22963;SDS011;11648;49.306;6.934;2024-01-27T08:27:13;11.63;;;4.40;;
22963;SDS011;11648;49.306;6.934;2024-01-27T08:29:40;9.43;;;5.13;;
22963;SDS011;11648;49.306;6.934;2024-01-27T08:32:07;12.80;;;5.10;;
22963;SDS011;11648;49.306;6.934;2024-01-27T08:34:35;10.53;;;4.70;;
22963;SDS011;11648;49.306;6.934;2024-01-27T08:37:02;12.77;;;5.13;;
22963;SDS011;11648;49.306;6.934;2024-01-27T08:39:41;11.30;;;4.90;;
22963;SDS011;11648;49.306;6.934;2024-01-27T08:42:08;12.60;;;4.80;;
22963;SDS011;11648;49.306;6.934;2024-01-27T08:44:35;12.63;;;5.17;;
22963;SDS011;11648;49.306;6.934;2024-01-27T08:47:02;11.13;;;5.20;;
22963;SDS011;11648;49.306;6.934;2024-01-27T08:49:33;11.77;;;4.93;;
22963;SDS011;11648;49.306;6.934;2024-01-27T08:52:00;11.93;;;4.80;;
22963;SDS011;11648;49.306;6.934;2024-01-27T08:54:27;9.63;;;4.37;;
22963;SDS011;11648;49.306;6.934;2024-01-27T08:56:54;9.33;;;4.20;;
22963;SDS011;11648;49.306;6.934;2024-01-27T08:59:21;11.43;;;4.90;;
22963;SDS011;11648;49.306;6.934;2024-01-27T09:01:48;9.63;;;5.13;;
22963;SDS011;11648;49.306;6.934;2024-01-27T09:04:15;9.63;;;4.70;;
22963;SDS011;11648;49.306;6.934;2024-01-27T09:06:42;11.17;;;5.20;;
22963;SDS011;11648;49.306;6.934;2024-01-27T09:09:09;12.13;;;5.00;;
22963;SDS011;11648;49.306;6.934;2024-01-27T09:11:36;12.00;;;5.17;;
22963;SDS011;11648;49.306;6.934;2024-01-27T09:14:03;11.03;;;4.93;;
22963;SDS011;11648;49.306;6.934;2024-01-27T09:16:31;11.50;;;5.17;;
22963;SDS011;11648;49.306;6.934;2024-01-27T09:18:58;11.70;;;5.03;;
22963;SDS011;11648;49.306;6.934;2024-01-27T09:21:25;15.00;;;5.60;;
22963;SDS011;11648;49.306;6.934;2024-01-27T09:23:55;14.03;;;5.73;;
22963;SDS011;11648;49.306;6.934;2024-01-27T09:26:24;13.93;;;6.00;;
22963;SDS011;11648;49.306;6.934;2024-01-27T09:28:51;11.90;;;5.47;;
22963;SDS011;11648;49.306;6.934;2024-01-27T09:31:21;14.57;;;5.43;;
22963;SDS011;11648;49.306;6.934;2024-01-27T09:33:50;14.07;;;5.50;;
22963;SDS011;11648;49.306;6.934;2024-01-27T09:36:19;8.57;;;5.00;;
22963;SDS011;11648;49.306;6.934;2024-01-27T09:38:46;15.50;;;6.10;;
22963;SDS011;11648;49.306;6.934;2024-01-27T09:41:13;12.93;;;5.50;;
22963;SDS011;11648;49.306;6.934;2024-01-27T09:43:44;12.30;;;6.00;;
22963;SDS011;11648;49.306;6.934;2024-01-27T09:46:12;10.93;;;5.37;;
22963;SDS011;11648;49.306;6.934;2024-01-27T09:48:40;12.60;;;6.17;;
22963;SDS011;11648;49.306;6.934;2024-01-27T09:51:08;12.93;;;6.40;;
22963;SDS011;11648;49.306;6.934;2024-01-27T09:53:36;13.10;;;6.00;;
22963;SDS011;11648;49.306;6.934;2024-01-27T09:56:04;12.23;;;6.17;;
22963;SDS011;11648;49.306;6.934;2024-01-27T09:58:31;11.93;;;5.70;;
22963;SDS011;11648;49.306;6.934;2024-01-27T10:00:58;10.07;;;6.07;;
22963;SDS011;11648;49.306;6.934;2024-01-27T10:03:27;10.27;;;5.33;;
22963;SDS011;11648;49.306;6.934;2024-01-27T10:05:56;11.27;;;5.53;;
22963;SDS011;11648;49.306;6.934;2024-01-27T10:08:23;8.67;;;5.60;;
22963;SDS011;11648;49.306;6.934;2024-01-27T10:10:52;10.87;;;5.00;;
22963;SDS011;11648;49.306;6.934;2024-01-27T10:13:22;10.60;;;4.60;;
22963;SDS011;11648;49.306;6.934;2024-01-27T10:16:02;7.80;;;3.97;;
22963;SDS011;11648;49.306;6.934;2024-01-27T10:18:30;8.90;;;4.70;;
22963;SDS011;11648;49.306;6.934;2024-01-27T10:20:58;6.83;;;4.00;;
22963;SDS011;11648;49.306;6.934;2024-01-27T10:23:26;10.15;;;4.30;;
22963;SDS011;11648;49.306;6.934;2024-01-27T10:25:53;9.23;;;4.25;;
22963;SDS011;11648;49.306;6.934;2024-01-27T10:28:24;8.85;;;4.63;;
22963;SDS011;11648;49.306;6.934;2024-01-27T10:30:51;9.38;;;4.70;;
22963;SDS011;11648;49.306;6.934;2024-01-27T10:33:17;10.45;;;4.90;;
22963;SDS011;11648;49.306;6.934;2024-01-27T10:35:45;10.55;;;5.25;;
22963;SDS011;11648;49.306;6.934;2024-01-27T10:38:12;9.70;;;5.40;;
22963;SDS011;11648;49.306;6.934;2024-01-27T10:40:39;9.32;;;5.60;;
22963;SDS011;11648;49.306;6.934;2024-01-27T10:43:07;8.68;;;5.80;;
22963;SDS011;11648;49.306;6.934;2024-01-27T10:45:36;8.55;;;5.25;;
22963;SDS011;11648;49.306;6.934;2024-01-27T10:48:09;9.48;;;4.72;;
22963;SDS011;11648;49.306;6.934;2024-01-27T10:50:40;7.43;;;4.70;;
22963;SDS011;11648;49.306;6.934;2024-01-27T10:53:20;9.15;;;5.53;;
22963;SDS011;11648;49.306;6.934;2024-01-27T10:55:54;9.00;;;4.97;;
22963;SDS011;11648;49.306;6.934;2024-01-27T10:58:24;7.72;;;4.95;;
22963;SDS011;11648;49.306;6.934;2024-01-27T11:00:52;9.85;;;5.85;;
22963;SDS011;11648;49.306;6.934;2024-01-27T11:03:20;9.65;;;5.93;;
22963;SDS011;11648;49.306;6.934;2024-01-27T11:05:49;11.13;;;5.72;;
22963;SDS011;11648;49.306;6.934;2024-01-27T11:08:18;10.85;;;6.28;;
22963;SDS011;11648;49.306;6.934;2024-01-27T11:10:46;9.20;;;6.03;;
22963;SDS011;11648;49.306;6.934;2024-01-27T11:13:13;9.77;;;6.45;;
22963;SDS011;11648;49.306;6.934;2024-01-27T11:15:50;9.40;;;5.95;;
22963;SDS011;11648;49.306;6.934;2024-01-27T11:18:18;8.30;;;5.85;;
22963;SDS011;11648;49.306;6.934;2024-01-27T11:20:46;10.70;;;7.03;;
22963;SDS011;11648;49.306;6.934;2024-01-27T11:23:13;10.35;;;6.65;;
22963;SDS011;11648;49.306;6.934;2024-01-27T11:25:41;9.18;;;6.00;;
22963;SDS011;11648;49.306;6.934;2024-01-27T11:28:14;10.10;;;6.15;;
22963;SDS011;11648;49.306;6.934;2024-01-27T11:30:46;9.63;;;5.97;;
22963;SDS011;11648;49.306;6.934;2024-01-27T11:33:14;9.00;;;6.00;;
22963;SDS011;11648;49.306;6.934;2024-01-27T11:35:41;10.35;;;6.28;;
22963;SDS011;11648;49.306;6.934;2024-01-27T11:38:08;8.45;;;5.57;;
22963;SDS011;11648;49.306;6.934;2024-01-27T11:40:45;10.52;;;6.50;;
22963;SDS011;11648;49.306;6.934;2024-01-27T11:43:13;11.30;;;5.95;;
22963;SDS011;11648;49.306;6.934;2024-01-27T11:45:40;9.45;;;6.00;;
22963;SDS011;11648;49.306;6.934;2024-01-27T11:48:07;7.72;;;5.60;;
22963;SDS011;11648;49.306;6.934;2024-01-27T11:50:35;10.18;;;5.70;;
22963;SDS011;11648;49.306;6.934;2024-01-27T11:53:02;9.90;;;5.70;;
22963;SDS011;11648;49.306;6.934;2024-01-27T11:55:29;8.27;;;4.78;;
22963;SDS011;11648;49.306;6.934;2024-01-27T11:57:56;8.52;;;5.25;;
22963;SDS011;11648;49.306;6.934;2024-01-27T12:00:23;9.88;;;4.80;;
22963;SDS011;11648;49.306;6.934;2024-01-27T12:02:50;8.02;;;4.95;;
22963;SDS011;11648;49.306;6.934;2024-01-27T12:05:18;9.63;;;4.90;;
22963;SDS011;11648;49.306;6.934;2024-01-27T12:07:45;9.48;;;4.72;;
22963;SDS011;11648;49.306;6.934;2024-01-27T12:10:12;10.07;;;4.78;;
22963;SDS011;11648;49.306;6.934;2024-01-27T12:12:39;8.80;;;4.70;;
22963;SDS011;11648;49.306;6.934;2024-01-27T12:15:07;9.98;;;4.85;;
22963;SDS011;11648;49.306;6.934;2024-01-27T12:17:34;9.80;;;5.50;;
22963;SDS011;11648;49.306;6.934;2024-01-27T12:20:01;9.27;;;4.22;;
22963;SDS011;11648;49.306;6.934;2024-01-27T12:22:29;9.75;;;4.57;;
22963;SDS011;11648;49.306;6.934;2024-01-27T12:25:07;8.55;;;4.07;;
22963;SDS011;11648;49.306;6.934;2024-01-27T12:27:36;7.68;;;4.20;;
22963;SDS011;11648;49.306;6.934;2024-01-27T12:30:04;7.45;;;3.90;;
22963;SDS011;11648;49.306;6.934;2024-01-27T12:32:32;10.13;;;4.40;;
22963;SDS011;11648;49.306;6.934;2024-01-27T12:35:04;9.27;;;4.50;;
22963;SDS011;11648;49.306;6.934;2024-01-27T12:37:35;9.73;;;4.78;;
22963;SDS011;11648;49.306;6.934;2024-01-27T12:40:02;9.52;;;4.32;;
22963;SDS011;11648;49.306;6.934;2024-01-27T12:42:30;8.95;;;4.90;;
22963;SDS011;11648;49.306;6.934;2024-01-27T12:44:57;9.02;;;4.97;;
22963;SDS011;11648;49.306;6.934;2024-01-27T12:47:24;7.43;;;4.25;;
22963;SDS011;11648;49.306;6.934;2024-01-27T12:49:51;10.00;;;4.38;;
22963;SDS011;11648;49.306;6.934;2024-01-27T12:52:19;9.80;;;3.95;;
22963;SDS011;11648;49.306;6.934;2024-01-27T12:54:48;9.43;;;3.75;;
22963;SDS011;11648;49.306;6.934;2024-01-27T12:57:15;7.03;;;2.50;;
22963;SDS011;11648;49.306;6.934;2024-01-27T12:59:44;4.80;;;1.70;;
22963;SDS011;11648;49.306;6.934;2024-01-27T13:02:10;3.20;;;0.70;;
22963;SDS011;11648;49.306;6.934;2024-01-27T13:04:37;4.33;;;1.00;;
22963;SDS011;11648;49.306;6.934;2024-01-27T13:07:04;3.00;;;0.80;;
22963;SDS011;11648;49.306;6.934;2024-01-27T13:09:32;2.90;;;0.90;;
22963;SDS011;11648;49.306;6.934;2024-01-27T13:11:59;3.13;;;1.00;;
22963;SDS011;11648;49.306;6.934;2024-01-27T13:14:26;4.00;;;1.00;;
22963;SDS011;11648;49.306;6.934;2024-01-27T13:16:53;4.67;;;1.17;;
22963;SDS011;11648;49.306;6.934;2024-01-27T13:19:21;2.97;;;0.93;;
22963;SDS011;11648;49.306;6.934;2024-01-27T13:21:48;3.77;;;1.10;;
22963;SDS011;11648;49.306;6.934;2024-01-27T13:24:15;5.50;;;1.47;;
22963;SDS011;11648;49.306;6.934;2024-01-27T13:26:42;5.57;;;1.40;;
22963;SDS011;11648;49.306;6.934;2024-01-27T13:29:08;5.47;;;1.50;;
22963;SDS011;11648;49.306;6.934;2024-01-27T13:31:36;3.97;;;1.37;;
22963;SDS011;11648;49.306;6.934;2024-01-27T13:34:02;5.43;;;1.30;;
22963;SDS011;11648;49.306;6.934;2024-01-27T13:36:31;3.27;;;1.00;;
22963;SDS011;11648;49.306;6.934;2024-01-27T13:38:58;6.53;;;1.50;;
22963;SDS011;11648;49.306;6.934;2024-01-27T13:41:25;3.73;;;1.33;;
22963;SDS011;11648;49.306;6.934;2024-01-27T13:43:52;3.87;;;1.30;;
22963;SDS011;11648;49.306;6.934;2024-01-27T13:46:19;3.87;;;1.30;;
22963;SDS011;11648;49.306;6.934;2024-01-27T13:48:46;4.30;;;1.53;;
22963;SDS011;11648;49.306;6.934;2024-01-27T13:51:15;4.00;;;1.40;;
22963;SDS011;11648;49.306;6.934;2024-01-27T13:53:42;4.27;;;1.70;;
22963;SDS011;11648;49.306;6.934;2024-01-27T13:56:13;3.87;;;1.40;;
22963;SDS011;11648;49.306;6.934;2024-01-27T13:58:41;4.87;;;1.20;;
22963;SDS011;11648;49.306;6.934;2024-01-27T14:01:08;4.60;;;1.10;;
22963;SDS011;11648;49.306;6.934;2024-01-27T14:03:35;4.63;;;1.37;;
22963;SDS011;11648;49.306;6.934;2024-01-27T14:06:04;3.63;;;1.30;;
22963;SDS011;11648;49.306;6.934;2024-01-27T14:08:33;4.90;;;1.57;;
22963;SDS011;11648;49.306;6.934;2024-01-27T14:11:00;4.43;;;1.20;;
22963;SDS011;11648;49.306;6.934;2024-01-27T14:13:27;3.33;;;0.83;;
22963;SDS011;11648;49.306;6.934;2024-01-27T14:15:54;3.83;;;1.13;;
22963;SDS011;11648;49.306;6.934;2024-01-27T14:18:23;2.73;;;0.90;;
22963;SDS011;11648;49.306;6.934;2024-01-27T14:20:50;3.53;;;0.90;;
22963;SDS011;11648;49.306;6.934;2024-01-27T14:23:17;3.73;;;0.80;;
22963;SDS011;11648;49.306;6.934;2024-01-27T14:25:44;3.77;;;0.93;;
22963;SDS011;11648;49.306;6.934;2024-01-27T14:28:14;4.03;;;0.97;;
22963;SDS011;11648;49.306;6.934;2024-01-27T14:30:41;3.93;;;1.30;;
22963;SDS011;11648;49.306;6.934;2024-01-27T14:33:11;5.43;;;1.40;;
22963;SDS011;11648;49.306;6.934;2024-01-27T14:35:38;3.90;;;1.30;;
22963;SDS011;11648;49.306;6.934;2024-01-27T14:38:06;4.03;;;0.80;;
22963;SDS011;11648;49.306;6.934;2024-01-27T14:40:36;2.50;;;0.97;;
22963;SDS011;11648;49.306;6.934;2024-01-27T14:43:03;3.47;;;0.90;;
22963;SDS011;11648;49.306;6.934;2024-01-27T14:45:35;3.47;;;1.10;;